LFAT/LTQ METAR and TAF weather

Enter ICAO airport designator
Station Type Date Time Source
LFAT METAR 2019/04/19 10:00 UTC NOAA

LFAT 191000Z AUTO 08006KT 040V130 9999 FEW009 20/10 Q1026 NOSIG


Station Type Date Time Source
LFAT Decoded METAR 2019/04/19 10:00 UTC NOAA

Le Touquet, France (LFAT) 50-31N 001-37E 14M
Apr 19, 2019 - 06:00 AM EDT / 2019.04.19 1000 UTC
Wind: from the E (080 degrees) at 7 MPH (6 KT) (direction variable):0
Visibility: greater than 7 mile(s):0
Sky conditions: mostly clear
Temperature: 68 F (20 C)
Dew Point: 50 F (10 C)
Relative Humidity: 52%
Pressure (altimeter): 30.30 in. Hg (1026 hPa)
ob: LFAT 191000Z AUTO 08006KT 040V130 9999 FEW009 20/10 Q1026 NOSIG
cycle: 10

Station Type Date Time Source
LFAT TAF 2018/07/14 09:21 UTC NOAA

TAF TAF LFAT 140800Z 1409/1421 09004KT 8000 NSC
BECMG 1409/1411 30010KT

Example: see airport list